Time;durP1;ratioP1;P1;durP2;ratioP2;P2;SDS_P1;SDS_P2;PMS_P1;PMS_P2;Temp;Humidity;BMP_temperature;BMP_pressure;BME280_temperature;BME280_humidity;BME280_pressure;Samples;Min_cycle;Max_cycle;Signal;HPM_P1;HPM_P2
2022/12/22 03:27:33;;;;;;;35.95;21.05;;;2.10;99.90;;;;;;5064816;28;20213;-75
2022/12/22 03:29:58;;;;;;;36.97;21.07;;;2.10;99.90;;;;;;5071367;28;20207;-74
2022/12/22 03:32:24;;;;;;;39.30;23.65;;;2.10;99.90;;;;;;5069803;28;20179;-75
2022/12/22 03:34:49;;;;;;;36.88;20.30;;;2.10;99.90;;;;;;5067268;28;20562;-75
2022/12/22 03:37:15;;;;;;;38.83;22.23;;;2.10;99.90;;;;;;5067082;28;20194;-74
2022/12/22 03:39:41;;;;;;;36.65;21.67;;;2.10;99.90;;;;;;5070864;28;20246;-75
2022/12/22 03:47:37;;;;;;;34.78;20.15;;;2.20;99.90;;;;;;5067111;28;20297;-75
2022/12/22 03:50:03;;;;;;;38.42;19.52;;;2.20;99.90;;;;;;5066346;28;20700;-74
2022/12/22 03:52:29;;;;;;;35.80;19.10;;;2.30;99.90;;;;;;5069036;28;20190;-73
2022/12/22 03:54:54;;;;;;;33.92;20.55;;;2.30;99.90;;;;;;5068695;28;20551;-74
2022/12/22 03:57:20;;;;;;;32.70;20.60;;;2.30;99.90;;;;;;5070641;28;20175;-74
2022/12/22 03:59:45;;;;;;;37.53;21.38;;;2.20;99.90;;;;;;5068560;28;20208;-74
2022/12/22 04:02:11;;;;;;;37.88;21.20;;;2.20;99.90;;;;;;5067477;28;20199;-74
2022/12/22 04:04:36;;;;;;;34.95;21.38;;;2.10;99.90;;;;;;5071103;28;20175;-74
2022/12/22 04:07:02;;;;;;;34.78;19.13;;;2.20;99.90;;;;;;5069932;28;20187;-73
2022/12/22 04:09:28;;;;;;;40.40;24.83;;;2.20;99.90;;;;;;5066956;28;20206;-74
2022/12/22 04:14:38;;;;;;;39.40;22.55;;;2.20;99.90;;;;;;5066069;28;20278;-74
2022/12/22 04:17:05;;;;;;;37.70;21.98;;;2.30;99.90;;;;;;5069470;28;20717;-74
2022/12/22 04:19:31;;;;;;;43.13;24.25;;;2.30;99.90;;;;;;5067530;28;20207;-74
2022/12/22 04:21:56;;;;;;;43.77;23.80;;;2.10;99.90;;;;;;5070133;28;20233;-74
2022/12/22 04:24:22;;;;;;;34.40;20.77;;;2.10;99.90;;;;;;5061909;28;20180;-74
2022/12/22 04:26:49;;;;;;;37.67;23.17;;;2.10;99.90;;;;;;5062653;28;20630;-75
2022/12/22 04:29:14;;;;;;;43.47;22.48;;;2.10;99.90;;;;;;5059937;28;20240;-74
2022/12/22 04:31:40;;;;;;;44.17;22.77;;;2.10;99.90;;;;;;5068708;28;20182;-74
2022/12/22 04:34:05;;;;;;;49.30;26.23;;;2.10;99.90;;;;;;5063220;28;20845;-75
2022/12/22 04:36:31;;;;;;;45.35;22.45;;;2.10;99.90;;;;;;5060042;28;20262;-75
2022/12/22 04:38:57;;;;;;;44.40;24.15;;;2.10;99.90;;;;;;5061707;28;20268;-74
2022/12/22 04:41:22;;;;;;;39.97;22.57;;;2.10;99.90;;;;;;5058665;28;20200;-74
2022/12/22 04:43:48;;;;;;;41.25;23.00;;;2.10;99.90;;;;;;5061998;28;20199;-75
2022/12/22 04:46:13;;;;;;;33.63;20.08;;;2.10;99.90;;;;;;5062183;28;20560;-74
2022/12/22 04:48:39;;;;;;;38.28;21.77;;;2.20;99.90;;;;;;5059163;28;20187;-75
2022/12/22 04:51:05;;;;;;;43.85;25.48;;;2.20;99.90;;;;;;5061180;28;20216;-73
2022/12/22 04:53:31;;;;;;;40.78;24.13;;;2.10;99.90;;;;;;5060516;28;20271;-74
2022/12/22 04:56:02;;;;;;;41.15;24.83;;;2.10;99.90;;;;;;5055300;28;20194;-74
2022/12/22 04:58:28;;;;;;;35.47;20.73;;;2.10;99.90;;;;;;5065304;28;20211;-76
2022/12/22 05:00:55;;;;;;;41.22;22.42;;;2.10;99.90;;;;;;5066128;28;20268;-76
2022/12/22 05:03:21;;;;;;;40.92;22.75;;;2.10;99.90;;;;;;5060197;28;20277;-76
2022/12/22 05:05:46;;;;;;;40.25;22.00;;;2.10;99.90;;;;;;5059830;28;20207;-75
2022/12/22 05:08:12;;;;;;;46.73;23.07;;;2.20;99.90;;;;;;5059329;28;20239;-75
2022/12/22 05:10:38;;;;;;;36.10;20.88;;;2.20;99.90;;;;;;5066401;28;20221;-75
2022/12/22 05:13:03;;;;;;;46.65;23.30;;;2.30;99.90;;;;;;5064414;28;20188;-75
2022/12/22 05:15:32;;;;;;;37.15;20.88;;;2.20;99.90;;;;;;5060454;28;20183;-75
2022/12/22 05:17:59;;;;;;;43.92;21.35;;;2.30;99.90;;;;;;5059399;28;20651;-74
2022/12/22 05:20:26;;;;;;;45.13;26.55;;;2.30;99.90;;;;;;5063771;28;20274;-74
2022/12/22 05:22:52;;;;;;;36.60;21.33;;;2.30;99.90;;;;;;5060692;28;20265;-75
2022/12/22 05:25:18;;;;;;;40.97;23.23;;;2.20;99.90;;;;;;5065043;28;20262;-74
2022/12/22 05:27:46;;;;;;;44.92;24.65;;;2.30;99.90;;;;;;5059252;28;20773;-74
2022/12/22 05:30:12;;;;;;;46.58;24.45;;;2.30;99.90;;;;;;5061760;28;20195;-74
2022/12/22 05:32:38;;;;;;;43.83;23.95;;;2.30;99.90;;;;;;5058714;28;20634;-75
2022/12/22 05:35:05;;;;;;;40.28;22.35;;;2.20;99.90;;;;;;5067870;28;20186;-75
2022/12/22 05:37:30;;;;;;;40.85;23.17;;;2.20;99.90;;;;;;5064017;28;20176;-75
2022/12/22 05:39:56;;;;;;;43.28;24.83;;;2.30;99.90;;;;;;5064087;28;20202;-75
2022/12/22 05:42:34;;;;;;;46.30;23.98;;;2.20;99.90;;;;;;5069467;28;20622;-75
2022/12/22 05:45:14;;;;;;;41.45;22.70;;;2.30;99.90;;;;;;5068420;28;20190;-75
2022/12/22 05:47:40;;;;;;;37.67;23.55;;;2.20;99.90;;;;;;5059709;28;20183;-75
2022/12/22 05:50:07;;;;;;;38.78;22.02;;;2.40;99.90;;;;;;5059412;28;20577;-75
2022/12/22 05:52:33;;;;;;;37.30;21.52;;;2.40;99.90;;;;;;5068807;28;20179;-74
2022/12/22 05:54:58;;;;;;;39.25;22.98;;;2.40;99.90;;;;;;5069232;28;20693;-75
2022/12/22 05:57:24;;;;;;;36.75;21.60;;;2.40;99.90;;;;;;5065528;28;20321;-74
2022/12/22 05:59:49;;;;;;;39.45;23.35;;;2.40;99.90;;;;;;5069307;28;20207;-76
2022/12/22 06:02:15;;;;;;;37.67;22.67;;;2.30;99.90;;;;;;5068305;28;20190;-74
2022/12/22 06:04:41;;;;;;;41.17;23.35;;;2.30;99.90;;;;;;5058715;28;20237;-75
2022/12/22 06:07:06;;;;;;;38.30;21.40;;;2.30;99.90;;;;;;5067907;28;20707;-73
2022/12/22 06:09:32;;;;;;;41.03;22.98;;;2.30;99.90;;;;;;5064082;28;20230;-74
2022/12/22 06:11:58;;;;;;;38.88;21.92;;;2.30;99.90;;;;;;5062867;28;20187;-74
2022/12/22 06:14:23;;;;;;;43.58;24.65;;;2.30;99.90;;;;;;5065193;28;20183;-75
2022/12/22 06:16:49;;;;;;;37.60;21.17;;;2.30;99.90;;;;;;5067031;28;20609;-75
2022/12/22 06:19:14;;;;;;;48.35;24.80;;;2.40;99.90;;;;;;5067479;28;20569;-74
2022/12/22 06:21:40;;;;;;;45.53;25.08;;;2.40;99.90;;;;;;5067152;28;20175;-74
2022/12/22 06:24:06;;;;;;;37.63;22.13;;;2.40;99.90;;;;;;5073060;28;20719;-74
2022/12/22 06:26:31;;;;;;;45.75;24.15;;;2.50;99.90;;;;;;5069105;28;20172;-74
2022/12/22 06:28:57;;;;;;;36.70;21.85;;;2.50;99.90;;;;;;5064361;28;20187;-74
2022/12/22 06:31:23;;;;;;;48.35;25.40;;;2.50;99.90;;;;;;5069883;28;20195;-75
2022/12/22 06:33:49;;;;;;;43.53;24.65;;;2.50;99.90;;;;;;5069582;28;20263;-74
2022/12/22 06:36:14;;;;;;;37.75;22.25;;;2.40;99.90;;;;;;5066052;28;20258;-75
2022/12/22 06:38:40;;;;;;;40.95;23.23;;;2.40;99.90;;;;;;5065727;28;20669;-74
2022/12/22 06:41:06;;;;;;;39.90;21.60;;;2.40;99.90;;;;;;5071156;28;20200;-75
2022/12/22 06:43:31;;;;;;;36.38;23.15;;;2.50;99.90;;;;;;5069684;28;20222;-74
2022/12/22 06:45:57;;;;;;;34.40;20.23;;;2.50;99.90;;;;;;5072826;28;20183;-75
2022/12/22 06:48:23;;;;;;;41.03;21.35;;;2.60;99.90;;;;;;5071190;28;20198;-74
2022/12/22 06:50:48;;;;;;;36.60;21.73;;;2.50;99.90;;;;;;5071752;28;20299;-74
2022/12/22 06:53:14;;;;;;;35.47;20.83;;;2.60;99.90;;;;;;5069164;28;20175;-73
2022/12/22 06:55:40;;;;;;;38.13;21.83;;;2.60;99.90;;;;;;5072443;28;20187;-74
2022/12/22 06:58:06;;;;;;;33.40;21.20;;;2.60;99.90;;;;;;5071966;28;20237;-74
2022/12/22 07:00:32;;;;;;;36.65;20.27;;;2.70;99.90;;;;;;5067917;28;21149;-74
2022/12/22 07:02:58;;;;;;;32.58;18.73;;;2.60;99.90;;;;;;5070121;28;20677;-74
2022/12/22 07:05:23;;;;;;;34.45;20.25;;;2.60;99.90;;;;;;5065794;28;20187;-75
2022/12/22 07:07:49;;;;;;;34.58;18.70;;;2.70;99.90;;;;;;5070822;28;20179;-75
2022/12/22 07:10:15;;;;;;;42.70;23.63;;;2.70;99.90;;;;;;5063096;28;20696;-75
2022/12/22 07:12:41;;;;;;;39.10;22.98;;;2.70;99.90;;;;;;5069287;28;20186;-74
2022/12/22 07:15:07;;;;;;;38.75;23.13;;;2.60;99.90;;;;;;5071961;28;20175;-75
2022/12/22 07:17:33;;;;;;;32.17;20.23;;;2.60;99.90;;;;;;5071696;28;20182;-74
2022/12/22 07:19:59;;;;;;;26.50;18.45;;;2.60;99.90;;;;;;5068426;28;20207;-75
2022/12/22 07:22:25;;;;;;;33.17;22.10;;;2.70;99.90;;;;;;5071512;28;20179;-75
2022/12/22 07:24:50;;;;;;;33.05;21.35;;;2.70;99.90;;;;;;5069121;28;20176;-75
2022/12/22 07:27:16;;;;;;;32.90;19.65;;;2.70;99.90;;;;;;5066746;28;20233;-75
2022/12/22 07:29:42;;;;;;;35.95;21.80;;;2.70;99.90;;;;;;5070745;28;20206;-74
2022/12/22 07:32:07;;;;;;;37.67;21.02;;;2.60;99.90;;;;;;5070745;28;20183;-74
2022/12/22 07:34:33;;;;;;;41.40;22.02;;;2.60;99.90;;;;;;5066005;28;20187;-74
2022/12/22 07:36:59;;;;;;;39.30;22.17;;;2.60;99.90;;;;;;5072496;28;20236;-75
2022/12/22 07:39:24;;;;;;;32.42;19.45;;;2.60;99.90;;;;;;5067135;28;20248;-76
2022/12/22 07:44:34;;;;;;;29.15;17.80;;;2.80;99.90;;;;;;5068875;28;20222;-74
2022/12/22 07:46:59;;;;;;;31.85;19.90;;;2.70;99.90;;;;;;5072641;28;20198;-75
2022/12/22 07:52:09;;;;;;;31.02;18.77;;;2.80;99.90;;;;;;5070513;28;20244;-75
2022/12/22 07:54:35;;;;;;;29.85;18.10;;;2.70;99.90;;;;;;5068908;28;20600;-75
2022/12/22 07:57:01;;;;;;;30.65;19.08;;;2.90;99.90;;;;;;5068984;28;20254;-75
2022/12/22 07:59:26;;;;;;;28.85;20.08;;;2.90;99.90;;;;;;5070936;28;20286;-75
2022/12/22 08:01:52;;;;;;;34.55;21.90;;;2.90;99.90;;;;;;5063541;28;20220;-75
2022/12/22 08:04:18;;;;;;;36.95;21.95;;;3.00;99.90;;;;;;5071051;28;20175;-75
2022/12/22 08:06:43;;;;;;;30.95;19.23;;;3.00;99.90;;;;;;5066862;28;20226;-74
2022/12/22 08:09:13;;;;;;;35.83;21.23;;;3.00;99.90;;;;;;5070865;28;20187;-79
2022/12/22 08:11:38;;;;;;;32.92;20.20;;;3.10;99.90;;;;;;5069123;28;20195;-77
2022/12/22 08:14:04;;;;;;;28.40;20.05;;;3.10;99.90;;;;;;5073274;28;20213;-77
2022/12/22 08:16:30;;;;;;;32.03;19.38;;;3.20;99.90;;;;;;5071804;28;20178;-79
2022/12/22 08:18:56;;;;;;;29.88;17.65;;;3.30;99.90;;;;;;5071763;28;20266;-80
2022/12/22 08:21:21;;;;;;;28.63;18.15;;;3.40;99.90;;;;;;5070909;28;20206;-78
2022/12/22 08:23:47;;;;;;;31.08;20.55;;;3.40;99.90;;;;;;5069946;28;20220;-78
2022/12/22 08:26:33;;;;;;;28.75;18.33;;;3.60;99.90;;;;;;5069740;28;20255;-77
2022/12/22 08:29:07;;;;;;;25.67;17.67;;;3.60;99.90;;;;;;5069583;28;20179;-72
2022/12/22 08:31:33;;;;;;;24.70;16.90;;;3.60;99.90;;;;;;5065809;28;20231;-72
2022/12/22 08:34:02;;;;;;;26.98;18.17;;;3.70;99.90;;;;;;5066202;28;20665;-72
2022/12/22 08:36:29;;;;;;;29.42;18.75;;;3.80;99.90;;;;;;5067465;28;20184;-72
2022/12/22 08:38:55;;;;;;;21.58;17.02;;;3.70;99.90;;;;;;5064848;28;20207;-72
2022/12/22 08:41:48;;;;;;;24.02;16.45;;;3.70;99.90;;;;;;5065275;28;20492;-72
2022/12/22 08:44:07;;;;;;;26.02;17.45;;;3.60;99.90;;;;;;5065723;28;20187;-71
2022/12/22 08:46:32;;;;;;;26.90;17.77;;;3.70;99.90;;;;;;5066543;28;20176;-76
2022/12/22 08:48:58;;;;;;;25.08;16.50;;;3.80;99.90;;;;;;5069259;28;20240;-76
2022/12/22 08:51:24;;;;;;;23.52;16.42;;;3.90;99.90;;;;;;5070903;28;20218;-75
2022/12/22 08:53:50;;;;;;;27.77;16.55;;;4.00;99.90;;;;;;5071676;28;20699;-74
2022/12/22 08:56:15;;;;;;;26.80;16.35;;;4.00;99.90;;;;;;5070479;28;20175;-74
2022/12/22 08:58:41;;;;;;;17.60;14.60;;;4.10;99.90;;;;;;5067172;28;20204;-74
2022/12/22 09:01:07;;;;;;;25.38;17.42;;;4.30;99.90;;;;;;5068807;28;20207;-72
2022/12/22 09:03:32;;;;;;;22.98;16.30;;;4.20;99.90;;;;;;5060170;28;20174;-74
2022/12/22 09:06:01;;;;;;;21.10;15.43;;;4.30;99.90;;;;;;5067103;28;20184;-74
2022/12/22 09:08:27;;;;;;;21.90;15.43;;;4.30;99.90;;;;;;5069632;28;20605;-74
2022/12/22 09:10:52;;;;;;;19.58;14.32;;;4.50;99.90;;;;;;5071476;28;20199;-74
2022/12/22 09:13:18;;;;;;;17.70;13.27;;;4.70;99.90;;;;;;5067585;28;20681;-72
2022/12/22 09:15:44;;;;;;;18.48;13.75;;;5.00;99.90;;;;;;5072001;28;20368;-75
2022/12/22 09:18:09;;;;;;;20.33;15.02;;;5.40;99.90;;;;;;5072179;28;20199;-76
2022/12/22 09:20:35;;;;;;;16.80;13.27;;;6.00;99.90;;;;;;5076111;28;20199;-76
2022/12/22 09:23:01;;;;;;;16.58;12.95;;;6.30;99.90;;;;;;5061869;28;20179;-73
2022/12/22 09:25:26;;;;;;;14.15;12.50;;;6.50;99.90;;;;;;5074969;28;20171;-74
2022/12/22 09:27:52;;;;;;;14.98;13.23;;;6.50;99.90;;;;;;5068903;28;20193;-78
2022/12/22 09:30:17;;;;;;;13.38;11.48;;;6.60;99.90;;;;;;5065762;28;20203;-74
2022/12/22 09:32:43;;;;;;;16.27;12.05;;;6.50;99.90;;;;;;5069280;28;20201;-75
2022/12/22 09:35:09;;;;;;;14.05;12.45;;;6.40;99.90;;;;;;5066184;28;20559;-76
2022/12/22 09:37:34;;;;;;;16.38;11.40;;;7.00;99.90;;;;;;5068420;28;20174;-78
2022/12/22 09:40:00;;;;;;;14.90;11.05;;;7.80;99.90;;;;;;5063417;28;20191;-77
2022/12/22 09:42:26;;;;;;;15.75;11.30;;;8.20;99.90;;;;;;5072751;28;20642;-76
2022/12/22 09:44:52;;;;;;;13.25;10.88;;;9.10;99.90;;;;;;5070570;28;20175;-76
2022/12/22 09:47:34;;;;;;;13.57;10.48;;;10.10;99.90;;;;;;5071815;28;20646;-76
2022/12/22 09:50:01;;;;;;;11.65;9.48;;;11.40;99.90;;;;;;5064050;28;20689;-75
2022/12/22 09:52:42;;;;;;;12.85;9.90;;;11.50;99.90;;;;;;5072135;28;20207;-76
2022/12/22 09:55:23;;;;;;;12.52;10.15;;;11.30;99.90;;;;;;5073411;28;20186;-75
2022/12/22 09:57:49;;;;;;;12.10;9.40;;;12.40;99.90;;;;;;5072354;28;20199;-75
2022/12/22 10:00:18;;;;;;;11.00;9.45;;;13.80;99.90;;;;;;5060756;28;20203;-76
2022/12/22 10:03:06;;;;;;;9.20;8.13;;;14.60;99.90;;;;;;5071496;28;20186;-74
2022/12/22 10:05:38;;;;;;;9.70;8.65;;;15.60;99.90;;;;;;5070481;28;20271;-77
2022/12/22 10:08:17;;;;;;;8.98;8.07;;;16.80;99.90;;;;;;5074155;28;20179;-77
2022/12/22 10:10:43;;;;;;;9.65;8.25;;;17.60;99.90;;;;;;5066174;28;20265;-73
2022/12/22 10:13:17;;;;;;;8.85;7.68;;;17.40;99.90;;;;;;5069060;28;21534;-75
2022/12/22 10:15:43;;;;;;;9.48;8.48;;;16.30;99.90;;;;;;5071997;28;20171;-75
2022/12/22 10:18:12;;;;;;;10.15;8.52;;;15.20;99.90;;;;;;5070057;28;20204;-79
2022/12/22 10:20:39;;;;;;;9.77;8.23;;;15.80;99.90;;;;;;5067599;28;20188;-76
2022/12/22 10:23:27;;;;;;;8.05;7.28;;;17.20;99.90;;;;;;5070280;28;20661;-79
2022/12/22 10:25:56;;;;;;;9.40;7.90;;;18.60;99.90;;;;;;5074963;28;20286;-75
2022/12/22 10:28:27;;;;;;;8.45;7.53;;;19.70;99.90;;;;;;5073059;28;20182;-75
2022/12/22 10:31:22;;;;;;;9.68;8.70;;;20.30;96.00;;;;;;5073625;28;20564;-76
2022/12/22 10:33:51;;;;;;;8.75;7.85;;;20.80;95.30;;;;;;5068935;28;20191;-76
2022/12/22 10:36:29;;;;;;;11.23;8.25;;;21.50;91.10;;;;;;5070963;28;20175;-76
2022/12/22 10:39:07;;;;;;;8.70;7.90;;;21.70;88.30;;;;;;5072362;28;20236;-76
2022/12/22 10:41:43;;;;;;;8.55;7.50;;;22.20;88.10;;;;;;5072871;28;20719;-77
2022/12/22 10:44:19;;;;;;;7.57;6.88;;;22.30;84.70;;;;;;5073629;28;20211;-77
2022/12/22 10:46:46;;;;;;;8.15;7.15;;;21.30;82.50;;;;;;5069473;28;20206;-78
2022/12/22 10:49:13;;;;;;;7.80;7.05;;;19.90;86.90;;;;;;5071212;28;20184;-75
2022/12/22 10:51:42;;;;;;;8.15;7.35;;;18.40;92.60;;;;;;5068857;28;20180;-82
2022/12/22 10:54:08;;;;;;;7.38;6.50;;;17.60;93.30;;;;;;5079576;28;20212;-80
2022/12/22 10:56:34;;;;;;;8.25;7.00;;;16.80;94.80;;;;;;5072807;28;20205;-80
2022/12/22 10:59:12;;;;;;;7.70;7.00;;;15.80;95.80;;;;;;5080378;28;20642;-81
2022/12/22 11:01:48;;;;;;;9.70;8.25;;;14.80;98.50;;;;;;5076658;28;20188;-81
2022/12/22 11:04:21;;;;;;;7.50;6.70;;;13.70;99.90;;;;;;5081330;28;20190;-81
2022/12/22 11:06:46;;;;;;;8.95;7.82;;;13.10;99.90;;;;;;5074673;28;20171;-79
2022/12/22 11:09:12;;;;;;;8.25;7.38;;;12.80;99.90;;;;;;5072643;28;20189;-78
2022/12/22 11:12:03;;;;;;;9.30;7.95;;;12.70;99.90;;;;;;5064777;28;20214;-77
2022/12/22 11:14:51;;;;;;;8.80;7.90;;;13.10;99.90;;;;;;5071652;28;20551;-76
2022/12/22 11:17:40;;;;;;;7.57;6.88;;;13.00;99.90;;;;;;5068988;28;20654;-76
2022/12/22 11:20:39;;;;;;;9.20;7.03;;;13.50;99.90;;;;;;5069980;28;20782;-80
2022/12/22 11:23:43;;;;;;;9.73;7.53;;;14.90;99.90;;;;;;5068045;28;20572;-80
2022/12/22 11:26:33;;;;;;;7.60;6.63;;;15.30;99.90;;;;;;5014978;28;20233;-78
2022/12/22 11:29:39;;;;;;;8.07;7.13;;;15.70;99.90;;;;;;5069863;28;20556;-80
2022/12/22 11:32:45;;;;;;;7.30;6.53;;;17.70;99.90;;;;;;5073786;28;20290;-82
2022/12/22 11:35:31;;;;;;;7.50;6.80;;;20.60;97.80;;;;;;4992516;28;20190;-79
2022/12/22 11:38:44;;;;;;;8.77;6.93;;;22.50;90.30;;;;;;5068123;28;20219;-78
2022/12/22 11:41:45;;;;;;;7.13;6.43;;;21.50;84.10;;;;;;5022608;28;20207;-79
2022/12/22 11:44:26;;;;;;;7.90;6.97;;;19.40;91.70;;;;;;5060893;28;20179;-78
2022/12/22 11:47:10;;;;;;;10.00;7.07;;;17.60;92.90;;;;;;5072253;28;20305;-78
2022/12/22 11:49:56;;;;;;;7.40;6.65;;;15.60;96.50;;;;;;5073532;28;20201;-77
2022/12/22 11:52:51;;;;;;;9.23;7.47;;;14.10;99.90;;;;;;5063431;28;20176;-77
2022/12/22 11:55:27;;;;;;;7.72;7.03;;;12.90;99.90;;;;;;5079836;28;20214;-77
2022/12/22 11:58:14;;;;;;;7.70;6.90;;;12.30;99.90;;;;;;5063048;28;20202;-77
2022/12/22 12:01:16;;;;;;;4.90;4.00;;;11.90;99.90;;;;;;5070040;28;20569;-77
2022/12/22 12:03:44;;;;;;;4.07;2.45;;;11.80;99.90;;;;;;5018405;28;20191;-76
2022/12/22 12:06:23;;;;;;;3.00;1.80;;;11.80;99.90;;;;;;5069717;28;20183;-77
2022/12/22 12:08:52;;;;;;;2.58;1.90;;;11.70;99.90;;;;;;5067948;28;20182;-77
2022/12/22 12:11:31;;;;;;;5.38;1.70;;;11.40;99.90;;;;;;5071084;28;20272;-77
2022/12/22 12:14:16;;;;;;;1.67;1.23;;;11.00;99.90;;;;;;5067752;28;20226;-77
2022/12/22 12:16:53;;;;;;;2.60;1.25;;;10.60;99.90;;;;;;5066655;28;20171;-77
2022/12/22 12:19:44;;;;;;;1.33;1.23;;;10.40;99.90;;;;;;5066259;28;21137;-77
2022/12/22 12:22:18;;;;;;;3.72;2.03;;;10.30;99.90;;;;;;5025649;28;20587;-76
2022/12/22 12:25:01;;;;;;;2.30;1.90;;;10.10;99.90;;;;;;5056765;28;20664;-77
2022/12/22 12:27:33;;;;;;;3.92;1.77;;;10.00;99.90;;;;;;5066464;28;20179;-77
2022/12/22 12:30:10;;;;;;;3.50;1.85;;;9.90;99.90;;;;;;5070501;28;20198;-77
2022/12/22 12:32:53;;;;;;;3.80;3.50;;;9.70;99.90;;;;;;5071760;28;20179;-76
2022/12/22 12:35:33;;;;;;;3.50;1.70;;;9.60;99.90;;;;;;5065019;28;20171;-76
2022/12/22 12:38:08;;;;;;;7.63;3.20;;;9.60;99.90;;;;;;5066653;28;20203;-76
2022/12/22 12:40:45;;;;;;;2.60;2.45;;;9.60;99.90;;;;;;5070299;28;20680;-77
2022/12/22 12:43:12;;;;;;;5.63;3.85;;;9.60;99.90;;;;;;5066301;28;20171;-76
2022/12/22 12:45:44;;;;;;;4.88;2.70;;;9.80;99.90;;;;;;5069866;28;20174;-76
2022/12/22 12:48:22;;;;;;;3.45;2.50;;;9.80;99.90;;;;;;5066800;28;20182;-76
2022/12/22 12:50:57;;;;;;;3.08;1.35;;;9.70;99.90;;;;;;5070217;28;20248;-76
2022/12/22 12:53:27;;;;;;;3.53;1.33;;;9.60;99.90;;;;;;5060840;28;20301;-75
2022/12/22 12:56:02;;;;;;;1.95;1.35;;;9.50;99.90;;;;;;5067682;28;20179;-75
2022/12/22 12:58:34;;;;;;;3.85;1.80;;;9.30;99.90;;;;;;5062260;28;20195;-75
2022/12/22 13:01:04;;;;;;;2.30;1.02;;;9.20;99.90;;;;;;5053907;28;20231;-75
2022/12/22 13:03:30;;;;;;;4.43;1.70;;;9.10;99.90;;;;;;5071071;28;20274;-76
2022/12/22 13:05:59;;;;;;;1.83;1.50;;;9.20;99.90;;;;;;5070504;28;20598;-75
2022/12/22 13:08:29;;;;;;;3.58;1.40;;;9.20;99.90;;;;;;5065096;28;20630;-75
2022/12/22 13:10:54;;;;;;;3.15;1.55;;;9.20;99.90;;;;;;5063203;28;20765;-77
2022/12/22 13:13:23;;;;;;;1.05;1.02;;;9.30;99.90;;;;;;5072196;28;20262;-76
2022/12/22 13:15:58;;;;;;;1.65;1.40;;;9.30;99.90;;;;;;5062939;28;20179;-76
2022/12/22 13:18:23;;;;;;;2.83;1.35;;;9.30;99.90;;;;;;5068231;28;20197;-75
2022/12/22 13:21:06;;;;;;;2.58;1.33;;;9.30;99.90;;;;;;5063749;28;20213;-77
2022/12/22 13:23:37;;;;;;;1.58;1.25;;;9.10;99.90;;;;;;5064289;28;20837;-74
2022/12/22 13:26:11;;;;;;;3.88;0.63;;;9.10;99.90;;;;;;5059905;28;20210;-74
2022/12/22 13:28:40;;;;;;;2.45;1.83;;;9.00;99.90;;;;;;5055512;28;20170;-75
2022/12/22 13:31:18;;;;;;;3.17;1.90;;;9.00;99.90;;;;;;5061749;28;20195;-75
2022/12/22 13:33:44;;;;;;;1.63;1.50;;;8.90;99.90;;;;;;5061258;28;20186;-75
2022/12/22 13:36:24;;;;;;;1.35;1.20;;;9.00;99.90;;;;;;5062633;28;20241;-75
2022/12/22 13:39:20;;;;;;;2.47;1.60;;;9.00;99.90;;;;;;5059050;28;20203;-75
2022/12/22 13:41:48;;;;;;;2.35;2.15;;;9.00;99.90;;;;;;5045172;28;20196;-75
2022/12/22 13:44:29;;;;;;;2.67;1.50;;;9.00;99.90;;;;;;5063691;28;20201;-74
2022/12/22 13:47:04;;;;;;;3.85;1.90;;;8.90;99.90;;;;;;5068422;28;20167;-74
2022/12/22 13:49:32;;;;;;;4.60;2.40;;;8.90;99.90;;;;;;5071164;28;20641;-73
2022/12/22 13:51:59;;;;;;;4.07;2.15;;;8.80;99.90;;;;;;5067915;28;20519;-73
2022/12/22 13:54:36;;;;;;;4.53;2.90;;;8.70;99.90;;;;;;5063365;28;20171;-75
2022/12/22 13:57:11;;;;;;;3.53;2.17;;;8.50;99.90;;;;;;5058426;28;20167;-75
2022/12/22 13:59:44;;;;;;;4.72;2.20;;;8.50;99.90;;;;;;5062018;28;20209;-75
2022/12/22 14:02:13;;;;;;;7.20;2.67;;;8.50;99.90;;;;;;5063041;28;22271;-75
2022/12/22 14:04:41;;;;;;;3.47;1.85;;;8.40;99.90;;;;;;5059906;28;20176;-75
2022/12/22 14:07:15;;;;;;;3.92;2.40;;;8.40;99.90;;;;;;5062900;28;20262;-74
2022/12/22 14:09:49;;;;;;;8.90;2.30;;;8.40;99.90;;;;;;5074025;28;20198;-73
2022/12/22 14:12:43;;;;;;;2.95;1.90;;;8.40;99.90;;;;;;5060541;28;20179;-72
2022/12/22 14:15:16;;;;;;;3.80;2.30;;;8.40;99.90;;;;;;5065349;28;20731;-73
2022/12/22 14:17:41;;;;;;;2.75;2.42;;;8.40;99.90;;;;;;5065443;28;20172;-73
2022/12/22 14:20:24;;;;;;;8.52;2.67;;;8.30;99.90;;;;;;5068444;28;20719;-74
2022/12/22 14:23:06;;;;;;;8.30;2.92;;;8.40;99.90;;;;;;5060711;28;20184;-73
2022/12/22 14:25:38;;;;;;;6.50;2.50;;;8.20;99.90;;;;;;5065536;28;20174;-73
2022/12/22 14:28:07;;;;;;;2.33;2.15;;;8.30;99.90;;;;;;5064769;28;20175;-73
2022/12/22 14:30:45;;;;;;;4.70;2.05;;;8.20;99.90;;;;;;5067806;28;20195;-73
2022/12/22 14:33:25;;;;;;;3.20;1.85;;;8.20;99.90;;;;;;5064950;28;20179;-72
2022/12/22 14:35:51;;;;;;;6.93;3.03;;;8.30;99.90;;;;;;5067294;28;20171;-73
2022/12/22 14:38:23;;;;;;;4.90;1.77;;;8.30;99.90;;;;;;5069888;28;20210;-73
2022/12/22 14:40:50;;;;;;;3.33;2.58;;;8.30;99.90;;;;;;5071961;28;20194;-73
2022/12/22 14:43:18;;;;;;;6.60;3.75;;;8.30;99.90;;;;;;5068861;28;20175;-74
2022/12/22 14:45:45;;;;;;;4.32;3.28;;;8.30;99.90;;;;;;5066819;28;20171;-75
2022/12/22 14:48:20;;;;;;;6.30;1.92;;;8.40;99.90;;;;;;5067873;28;20184;-75
2022/12/22 14:50:48;;;;;;;3.08;2.22;;;8.40;99.90;;;;;;5066622;28;20248;-75
2022/12/22 14:53:15;;;;;;;7.53;2.20;;;8.40;99.90;;;;;;5061659;28;20700;-74
2022/12/22 14:55:47;;;;;;;1.52;1.42;;;8.40;99.90;;;;;;5062554;28;20180;-75
2022/12/22 14:58:41;;;;;;;4.10;2.40;;;8.40;99.90;;;;;;5063241;28;20668;-75
2022/12/22 15:01:29;;;;;;;4.80;2.67;;;8.40;99.90;;;;;;5067631;28;20293;-74
2022/12/22 15:03:59;;;;;;;5.97;2.85;;;8.30;99.90;;;;;;5064641;28;20179;-75
2022/12/22 15:06:28;;;;;;;5.05;2.00;;;8.30;99.90;;;;;;5063378;28;20208;-75
2022/12/22 15:09:07;;;;;;;7.15;2.83;;;8.40;99.90;;;;;;5065449;28;20701;-75
2022/12/22 15:11:35;;;;;;;4.03;2.35;;;8.30;99.90;;;;;;5058520;28;20222;-75
2022/12/22 15:14:01;;;;;;;6.35;2.38;;;8.30;99.90;;;;;;5070631;28;20199;-75
2022/12/22 15:16:27;;;;;;;4.85;2.38;;;8.30;99.90;;;;;;5064269;28;20236;-75
2022/12/22 15:18:52;;;;;;;3.95;1.70;;;8.40;99.90;;;;;;5061834;28;20230;-75
2022/12/22 15:21:19;;;;;;;6.72;2.88;;;8.30;99.90;;;;;;5065036;28;20282;-75
2022/12/22 15:23:45;;;;;;;3.55;2.13;;;8.30;99.90;;;;;;5069196;28;20610;-74
2022/12/22 15:26:11;;;;;;;5.45;2.45;;;8.30;99.90;;;;;;5067874;28;20175;-75
2022/12/22 15:28:37;;;;;;;7.53;2.67;;;8.30;99.90;;;;;;5066181;28;20532;-74
2022/12/22 15:31:05;;;;;;;6.15;2.05;;;8.40;99.90;;;;;;5062037;28;20207;-74
2022/12/22 15:33:31;;;;;;;5.10;1.80;;;8.40;99.90;;;;;;5068353;28;20184;-74
2022/12/22 15:35:56;;;;;;;4.20;1.85;;;8.40;99.90;;;;;;5064133;28;20251;-75
2022/12/22 15:38:23;;;;;;;7.47;3.08;;;8.40;99.90;;;;;;5061078;28;20620;-75
2022/12/22 15:40:50;;;;;;;4.93;2.28;;;8.50;99.90;;;;;;5064858;28;20203;-76
2022/12/22 15:43:16;;;;;;;3.88;2.13;;;8.40;99.90;;;;;;5062203;28;20168;-75
2022/12/22 15:45:43;;;;;;;4.10;2.00;;;8.40;99.90;;;;;;5066003;28;20171;-74
2022/12/22 15:48:21;;;;;;;4.00;2.03;;;8.40;99.90;;;;;;5071012;28;20194;-76
2022/12/22 15:50:47;;;;;;;7.18;3.42;;;8.40;99.90;;;;;;5068813;28;20672;-77
2022/12/22 15:53:18;;;;;;;4.25;2.55;;;8.40;99.90;;;;;;5071552;28;20183;-77
2022/12/22 15:55:50;;;;;;;6.38;2.53;;;8.40;99.90;;;;;;5073226;28;20615;-77
2022/12/22 15:58:18;;;;;;;2.83;1.50;;;8.40;99.90;;;;;;5056703;28;20544;-77
2022/12/22 16:00:45;;;;;;;4.78;1.88;;;8.40;99.90;;;;;;5064412;28;20202;-77
2022/12/22 16:03:11;;;;;;;4.57;2.20;;;8.40;99.90;;;;;;5072236;28;20708;-77
2022/12/22 16:05:38;;;;;;;3.60;2.42;;;8.50;99.90;;;;;;5067671;28;20167;-77
2022/12/22 16:08:11;;;;;;;5.15;1.90;;;8.50;99.90;;;;;;5077601;28;20225;-77
2022/12/22 16:10:37;;;;;;;2.97;1.30;;;8.40;99.90;;;;;;5070660;28;20199;-76
2022/12/22 16:13:03;;;;;;;3.03;2.13;;;8.40;99.90;;;;;;5067700;28;20179;-76
2022/12/22 16:15:32;;;;;;;5.32;2.45;;;8.50;99.90;;;;;;5065666;28;20202;-76
2022/12/22 16:17:59;;;;;;;3.78;2.28;;;8.50;99.90;;;;;;5066827;28;20181;-77
2022/12/22 16:20:27;;;;;;;7.20;2.28;;;8.50;99.90;;;;;;5065709;28;20562;-75
2022/12/22 16:22:53;;;;;;;5.25;2.28;;;8.50;99.90;;;;;;5069500;28;20214;-76
2022/12/22 16:25:29;;;;;;;4.38;2.45;;;8.50;99.90;;;;;;5068371;28;20283;-76
2022/12/22 16:27:55;;;;;;;6.38;2.55;;;8.50;99.90;;;;;;5070768;28;20163;-77
2022/12/22 16:30:23;;;;;;;4.25;1.75;;;8.50;99.90;;;;;;5066596;28;20211;-76
2022/12/22 16:32:49;;;;;;;5.75;2.40;;;8.50;99.90;;;;;;5066235;28;20176;-78
2022/12/22 16:35:18;;;;;;;4.07;2.08;;;8.50;99.90;;;;;;5070341;28;20222;-78
2022/12/22 16:37:45;;;;;;;5.32;1.63;;;8.50;99.90;;;;;;5065262;28;20183;-77
2022/12/22 16:40:11;;;;;;;7.63;2.63;;;8.50;99.90;;;;;;5062659;28;20199;-76
2022/12/22 16:42:38;;;;;;;2.72;1.60;;;8.50;99.90;;;;;;5066142;28;20565;-77